Terminal Aerodrome Forecast
Issued by NWS Charleston, WV

Current Version | Previous Version | Text Only | Print | Product List | Glossary Off
Versions: 1 2 3 4 5 6 7 8 9 10 11 12 13 14 15 16 17 18 19 20 21 22 23 24

000
FTUS41 KRLX 242300
TAFCRW
TAF
KCRW 242340Z 2500/2524 VRB03KT P6SM BKN150
     FM250800 16007KT P6SM BKN120
     FM251300 17009KT 5SM -SHRA BKN050
     FM251500 20012G19KT 3SM -SHRA VCTS OVC025CB
     FM252000 25015G26KT P6SM VCTS BKN035CB
     FM252100 26016G27KT P6SM BKN025
     FM252300 28013G22KT P6SM SCT035=

USA.gov is the U.S. government's official web portal to all federal, state and local government web resources and services.